地図

経路データ

SID SEASON NUMBER BASIN SUBBASIN NAME ISO_TIME NATURE LAT LON WMO_WIND WMO_PRES WMO_AGENCY TRACK_TYPE DIST2LAND LANDFALL IFLAG USA_AGENCY USA_ATCF_ID USA_LAT USA_LON USA_RECORD USA_STATUS USA_WIND USA_PRES USA_SSHS USA_R34_NE USA_R34_SE USA_R34_SW USA_R34_NW USA_R50_NE USA_R50_SE USA_R50_SW USA_R50_NW USA_R64_NE USA_R64_SE USA_R64_SW USA_R64_NW USA_POCI USA_ROCI USA_RMW USA_EYE TOKYO_LAT TOKYO_LON TOKYO_GRADE TOKYO_WIND TOKYO_PRES TOKYO_R50_DIR TOKYO_R50_LONG TOKYO_R50_SHORT TOKYO_R30_DIR TOKYO_R30_LONG TOKYO_R30_SHORT TOKYO_LAND CMA_LAT CMA_LON CMA_CAT CMA_WIND CMA_PRES HKO_LAT HKO_LON HKO_CAT HKO_WIND HKO_PRES NEWDELHI_LAT NEWDELHI_LON NEWDELHI_GRADE NEWDELHI_WIND NEWDELHI_PRES NEWDELHI_CI NEWDELHI_DP NEWDELHI_POCI REUNION_LAT REUNION_LON REUNION_TYPE REUNION_WIND REUNION_PRES REUNION_TNUM REUNION_CI REUNION_RMW REUNION_R34_NE REUNION_R34_SE REUNION_R34_SW REUNION_R34_NW REUNION_R50_NE REUNION_R50_SE REUNION_R50_SW REUNION_R50_NW REUNION_R64_NE REUNION_R64_SE REUNION_R64_SW REUNION_R64_NW BOM_LAT BOM_LON BOM_TYPE BOM_WIND BOM_PRES BOM_TNUM BOM_CI BOM_RMW BOM_R34_NE BOM_R34_SE BOM_R34_SW BOM_R34_NW BOM_R50_NE BOM_R50_SE BOM_R50_SW BOM_R50_NW BOM_R64_NE BOM_R64_SE BOM_R64_SW BOM_R64_NW BOM_ROCI BOM_POCI BOM_EYE BOM_POS_METHOD BOM_PRES_METHOD NADI_LAT NADI_LON NADI_CAT NADI_WIND NADI_PRES WELLINGTON_LAT WELLINGTON_LON WELLINGTON_WIND WELLINGTON_PRES DS824_LAT DS824_LON DS824_STAGE DS824_WIND DS824_PRES TD9636_LAT TD9636_LON TD9636_STAGE TD9636_WIND TD9636_PRES TD9635_LAT TD9635_LON TD9635_WIND TD9635_PRES TD9635_ROCI NEUMANN_LAT NEUMANN_LON NEUMANN_CLASS NEUMANN_WIND NEUMANN_PRES MLC_LAT MLC_LON MLC_CLASS MLC_WIND MLC_PRES USA_GUST BOM_GUST BOM_GUST_PER REUNION_GUST REUNION_GUST_PER USA_SEAHGT USA_SEARAD_NE USA_SEARAD_SE USA_SEARAD_SW USA_SEARAD_NW STORM_SPEED STORM_DIR
1960313N10119 1960 86 WP MM NOT_NAMED 1960-11-08 06:00:00 TS 9.50000 118.800 main 15 0 __O___________ -1 9.50000 118.800 0 1008 14 287
1960313N10119 1960 86 WP MM NOT_NAMED 1960-11-08 09:00:00 TS 9.70771 118.108 main 31 31 __P___________ -1 9.70771 118.108 0 1008 14 286
1960313N10119 1960 86 WP MM NOT_NAMED 1960-11-08 12:00:00 TS 9.90000 117.400 main 89 89 __O___________ -1 9.90000 117.400 0 1008 15 285
1960313N10119 1960 86 WP MM NOT_NAMED 1960-11-08 15:00:00 TS 10.0775 116.677 main 156 156 __P___________ -1 10.0775 116.677 0 1008 14 286
1960313N10119 1960 86 WP MM NOT_NAMED 1960-11-08 18:00:00 TS 10.3000 116.000 main 227 227 __O___________ -1 10.3000 116.000 0 1008 14 294
1960313N10119 1960 86 WP MM NOT_NAMED 1960-11-08 21:00:00 TS 10.6424 115.390 main 298 298 __P___________ -1 10.6424 115.390 0 1006 13 303
1960313N10119 1960 86 WP MM NOT_NAMED 1960-11-09 00:00:00 TS 11.0000 114.900 main 369 369 __O___________ -1 11.0000 114.900 1 23 1005 10 308
1960313N10119 1960 86 WP MM NOT_NAMED 1960-11-09 03:00:00 TS 11.2648 114.577 main 416 416 __P___________ -1 11.2648 114.577 1 23 1005 8 310
1960313N10119 1960 86 WP MM NOT_NAMED 1960-11-09 06:00:00 TS 11.5000 114.300 main 455 455 __O___________ -1 11.5000 114.300 1 23 1005 8 307
1960313N10119 1960 86 WP MM NOT_NAMED 1960-11-09 09:00:00 TS 11.7575 113.908 main 486 440 __P___________ -1 11.7575 113.908 1 23 1005 9 303
1960313N10119 1960 86 WP MM NOT_NAMED 1960-11-09 12:00:00 TS 12.0000 113.500 main 440 404 __O___________ -1 12.0000 113.500 1 23 1005 9 302
1960313N10119 1960 86 WP MM NOT_NAMED 1960-11-09 15:00:00 TS 12.2149 113.150 main 393 359 __P___________ -1 12.2149 113.150 1 23 1005 8 300
1960313N10119 1960 86 WP MM NOT_NAMED 1960-11-09 18:00:00 TS 12.4000 112.800 main 359 314 __O___________ -1 12.4000 112.800 1 23 1005 8 296
1960313N10119 1960 86 WP MM NOT_NAMED 1960-11-09 21:00:00 TS 12.5649 112.415 main 314 271 __P___________ -1 12.5649 112.415 1 23 1005 8 291
1960313N10119 1960 86 WP MM NOT_NAMED 1960-11-10 00:00:00 TS 12.7000 112.000 main 271 228 __O___________ -1 12.7000 112.000 1 23 1005 9 287
1960313N10119 1960 86 WP MM NOT_NAMED 1960-11-10 03:00:00 TS 12.8149 111.572 main 228 173 __P___________ -1 12.8149 111.572 1 23 1005 9 283
1960313N10119 1960 86 WP MM NOT_NAMED 1960-11-10 06:00:00 TS 12.9000 111.100 main 173 119 __O___________ -1 12.9000 111.100 1 23 1005 10 279
1960313N10119 1960 86 WP MM NOT_NAMED 1960-11-10 09:00:00 TS 12.9649 110.580 main 119 55 __P___________ -1 12.9649 110.580 1 21 1006 11 275
1960313N10119 1960 86 WP MM NOT_NAMED 1960-11-10 12:00:00 TS 13.0000 110.000 main 55 0 __O___________ -1 13.0000 110.000 0 19 1008 12 272
1960313N10119 1960 86 WP MM NOT_NAMED 1960-11-10 15:00:00 TS 13.0079 109.365 main 0 0 __P___________ -1 13.0079 109.365 0 1008 13 270
1960313N10119 1960 86 WP MM NOT_NAMED 1960-11-10 18:00:00 TS 13.0000 108.700 main 0 __O___________ -1 13.0000 108.700 0 1008 13 269

デジタル台風データ・検索

IBTrACS Databaseについて

本データベースは、米国NOAAが公開する1842年以降の世界の熱帯低気圧のベストトラックデータアーカイブInternational Best Track Archive for Climate Stewardship (IBTrACS)を、ウェブで閲覧しやすい形式に変換したものです。

最終更新日:2021-10-25